Madison, SD

6:22 AM CST on November 13, 2019 (GMT -0600)
Madison Municipal

Weather History for KMDS - September, 2019

Change the Weather History Date:

Thursday, September 5, 2019

  Actual Average Record
Temperature  
Mean Temperature 70 °F -  
Max Temperature 80 °F 77 °F 84 °F (2015)
Min Temperature 59 °F 53 °F 41 °F (2011)
Cooling Degree Days 4    
Growing Degree Days 20 (Base 50)    
Moisture  
Dew Point 65 °F    
Average Humidity 91    
Maximum Humidity 100    
Minimum Humidity 58    
Precipitation  
Precipitation 0.00 in - - ()
Sea Level Pressure  
Sea Level Pressure 30.00 in    
Wind  
Wind Speed 10 mph ()    
Max Wind Speed 16 mph    
Max Gust Speed 21 mph    
Visibility 10.0 miles    
Events      
Averages and records for this station are not official NWS values.
T = Trace of Precipitation, MM = Missing Value Source: Averaged Metar Reports

Daily Weather History Graph

Daily Weather History Graph

Search for Another Location

Airport or City:

Astronomy

Sep. 05, 2019 Rise Set
Actual Time 6:55 AM CDT 7:57 PM CDT
Civil Twilight 6:26 AM CDT 8:26 PM CDT
Nautical Twilight 5:51 AM CDT 9:01 PM CDT
Astronomical Twilight 5:14 AM CDT 9:38 PM CDT
Moon 2:18 PM CDT (9/5) 11:58 PM CDT (9/5)
Length of Visible Light 14h 00m
Length of Day
13h 01m
Waxing Crescent, 45% of the Moon is Illuminated
Sep 5
Waxing Crescent
Sep 5
First Quarter
Sep 13
Full
Sep 21
Last Quarter
Sep 28
New

Hourly Weather History & Observations

Time (CDT) Temp. Heat Index Dew Point Humidity Pressure Visibility Wind Dir Wind Speed Gust Speed Precip Events Conditions
12:00 AM 59.0 °F - 59.0 °F 100% 30.07 in 10.0 mi South 9.2 mph - N/A   Clear
12:15 AM 59.0 °F - 59.0 °F 100% 30.07 in 10.0 mi SSE 8.1 mph - N/A   Clear
12:20 AM 59.0 °F - 59.0 °F 100% 30.06 in 10.0 mi SSE 10.4 mph - N/A   Partly Cloudy
12:35 AM 59.0 °F - 59.0 °F 100% 30.05 in 10.0 mi South 11.5 mph - N/A   Clear
12:40 AM 59.0 °F - 59.0 °F 100% 30.05 in 10.0 mi South 11.5 mph - N/A   Clear
12:55 AM 59.0 °F - 59.0 °F 100% 30.05 in 10.0 mi South 10.4 mph - N/A   Clear
1:15 AM 59.0 °F - 59.0 °F 100% 30.04 in 10.0 mi South 9.2 mph - N/A   Clear
1:20 AM 59.0 °F - 59.0 °F 100% 30.04 in 10.0 mi South 10.4 mph - N/A   Clear
1:35 AM 59.0 °F - 59.0 °F 100% 30.03 in 10.0 mi South 11.5 mph - N/A   Clear
1:55 AM 59.0 °F - 59.0 °F 100% 30.02 in 10.0 mi South 15.0 mph - N/A   Clear
2:00 AM 59.0 °F - 59.0 °F 100% 30.02 in 10.0 mi South 13.8 mph - N/A   Clear
2:15 AM 59.0 °F - 59.0 °F 100% 30.02 in 10.0 mi South 13.8 mph - N/A   Clear
2:20 AM 59.0 °F - 59.0 °F 100% 30.02 in 10.0 mi South 12.7 mph - N/A   Clear
2:35 AM 59.0 °F - 59.0 °F 100% 30.02 in 10.0 mi South 10.4 mph - N/A   Clear
2:40 AM 59.0 °F - 59.0 °F 100% 30.02 in 10.0 mi South 9.2 mph - N/A   Clear
2:55 AM 59.0 °F - 59.0 °F 100% 30.03 in 10.0 mi South 6.9 mph - N/A   Clear
3:00 AM 59.0 °F - 59.0 °F 100% 30.03 in 10.0 mi South 9.2 mph - N/A   Clear
3:15 AM 59.0 °F - 59.0 °F 100% 30.02 in 10.0 mi South 10.4 mph - N/A   Clear
3:20 AM 59.0 °F - 59.0 °F 100% 30.01 in 10.0 mi SSW 9.2 mph - N/A   Clear
3:35 AM 59.0 °F - 59.0 °F 100% 30.01 in 10.0 mi South 9.2 mph - N/A   Clear
3:55 AM 59.0 °F - 59.0 °F 100% 30.00 in 10.0 mi South 11.5 mph 16.1 mph N/A   Clear
4:15 AM 60.8 °F - 60.8 °F 100% 30.00 in 10.0 mi South 9.2 mph - N/A   Clear
4:35 AM 59.0 °F - 59.0 °F 100% 30.00 in 10.0 mi South 6.9 mph - N/A   Clear
4:40 AM 59.0 °F - 59.0 °F 100% 29.99 in 10.0 mi South 8.1 mph - N/A   Clear
4:55 AM 59.0 °F - 59.0 °F 100% 29.98 in 10.0 mi South 8.1 mph - N/A   Partly Cloudy
5:15 AM 59.0 °F - 59.0 °F 100% 29.97 in 10.0 mi South 10.4 mph - N/A   Partly Cloudy
5:20 AM 59.0 °F - 59.0 °F 100% 29.97 in 10.0 mi South 10.4 mph - N/A   Partly Cloudy
5:35 AM 59.0 °F - 59.0 °F 100% 29.97 in 10.0 mi South 6.9 mph - N/A   Clear
5:40 AM 59.0 °F - 59.0 °F 100% 29.97 in 10.0 mi South 8.1 mph - N/A   Partly Cloudy
5:55 AM 59.0 °F - 59.0 °F 100% 29.97 in 10.0 mi South 8.1 mph - N/A   Mostly Cloudy
6:15 AM 59.0 °F - 59.0 °F 100% 29.97 in 10.0 mi South 9.2 mph - N/A   Partly Cloudy
6:20 AM 59.0 °F - 59.0 °F 100% 29.96 in 10.0 mi South 11.5 mph - N/A   Partly Cloudy
6:35 AM 59.0 °F - 59.0 °F 100% 29.97 in 10.0 mi South 10.4 mph - N/A   Clear
6:40 AM 59.0 °F - 59.0 °F 100% 29.97 in 10.0 mi South 8.1 mph - N/A   Clear
7:15 AM 59.0 °F - 59.0 °F 100% 29.97 in 10.0 mi South 9.2 mph - N/A   Clear
7:20 AM 59.0 °F - 59.0 °F 100% 29.96 in 10.0 mi South 10.4 mph - N/A   Clear
7:35 AM 59.0 °F - 59.0 °F 100% 29.96 in 10.0 mi South 12.7 mph - N/A   Clear
7:55 AM 60.8 °F - 60.8 °F 100% 29.95 in 10.0 mi South 11.5 mph - N/A   Clear
8:15 AM 62.6 °F - 62.6 °F 100% 29.95 in 10.0 mi South 16.1 mph - N/A   Clear
8:20 AM 62.6 °F - 62.6 °F 100% 29.95 in 10.0 mi South 15.0 mph - N/A   Clear
8:35 AM 64.4 °F - 64.4 °F 100% 29.94 in 10.0 mi South 16.1 mph 19.6 mph N/A   Clear
8:55 AM 64.4 °F - 64.4 °F 100% 29.94 in 10.0 mi SSW 15.0 mph 20.7 mph N/A   Clear
9:00 AM 64.4 °F - 64.4 °F 100% 29.94 in 10.0 mi South 13.8 mph 20.7 mph N/A   Clear
9:15 AM 66.2 °F - 66.2 °F 100% 29.96 in 10.0 mi SSW 10.4 mph - N/A   Clear
9:20 AM 66.2 °F - 66.2 °F 100% 29.95 in 10.0 mi SSW 16.1 mph 19.6 mph N/A   Clear
9:35 AM 66.2 °F - 66.2 °F 100% 29.95 in 10.0 mi SSW 13.8 mph - N/A   Clear
9:40 AM 66.2 °F - 66.2 °F 100% 29.95 in 10.0 mi SSW 11.5 mph - N/A   Clear
9:55 AM 68.0 °F - 68.0 °F 100% 29.95 in 10.0 mi SW 11.5 mph - N/A   Clear
10:00 AM 68.0 °F - 68.0 °F 100% 29.95 in 10.0 mi SW 13.8 mph - N/A   Clear
10:15 AM 68.0 °F - 68.0 °F 100% 29.96 in 10.0 mi WSW 11.5 mph - N/A   Clear
10:20 AM 68.0 °F - 68.0 °F 100% 29.96 in 10.0 mi SSW 10.4 mph - N/A   Clear
10:35 AM 68.0 °F - 68.0 °F 100% 29.95 in 10.0 mi WSW 11.5 mph 18.4 mph N/A   Clear
10:55 AM 69.8 °F - 69.8 °F 100% 29.95 in 10.0 mi SW 9.2 mph - N/A   Clear
11:00 AM 69.8 °F - 69.8 °F 100% 29.95 in 10.0 mi SW 10.4 mph - N/A   Clear
11:15 AM 71.6 °F - 71.6 °F 100% 29.95 in 10.0 mi SW 9.2 mph - N/A   Clear
11:35 AM 71.6 °F - 71.6 °F 100% 29.96 in 10.0 mi WSW 9.2 mph - N/A   Clear
11:40 AM 73.4 °F - 71.6 °F 94% 29.96 in 10.0 mi SW 9.2 mph - N/A   Clear
11:55 AM 73.4 °F - 71.6 °F 94% 29.96 in 10.0 mi WSW 8.1 mph - N/A   Clear
12:15 PM 75.2 °F - 73.4 °F 94% 29.96 in 10.0 mi WSW 9.2 mph - N/A   Clear
12:20 PM 75.2 °F - 73.4 °F 94% 29.96 in 10.0 mi West 6.9 mph - N/A   Clear
12:35 PM 75.2 °F - 73.4 °F 94% 29.96 in 10.0 mi West 5.8 mph - N/A   Clear
12:40 PM 75.2 °F - 73.4 °F 94% 29.96 in 10.0 mi WNW 10.4 mph - N/A   Clear
1:00 PM 77.0 °F - 73.4 °F 89% 29.97 in 10.0 mi WNW 10.4 mph - N/A   Clear
1:15 PM 77.0 °F - 71.6 °F 83% 29.97 in 10.0 mi NW 9.2 mph - N/A   Clear
1:35 PM 77.0 °F - 73.4 °F 89% 29.97 in 10.0 mi West 5.8 mph - N/A   Clear
1:55 PM 78.8 °F - 71.6 °F 78% 29.96 in 10.0 mi SSW 4.6 mph - N/A   Clear
2:00 PM 78.8 °F - 73.4 °F 83% 29.97 in 10.0 mi West 5.8 mph - N/A   Clear
2:15 PM 80.6 °F 85.4 °F 73.4 °F 79% 29.96 in 10.0 mi NNW 6.9 mph - N/A   Clear
2:20 PM 80.6 °F 84.6 °F 71.6 °F 74% 29.96 in 10.0 mi NNW 3.5 mph - N/A   Clear
2:35 PM 80.6 °F 85.4 °F 73.4 °F 79% 29.97 in 10.0 mi North 4.6 mph - N/A   Clear
2:55 PM 80.6 °F 86.2 °F 75.2 °F 84% 29.97 in 10.0 mi NW 8.1 mph - N/A   Clear
3:00 PM 80.6 °F 85.4 °F 73.4 °F 79% 29.98 in 10.0 mi NW 9.2 mph - N/A   Clear
3:15 PM 80.6 °F 85.4 °F 73.4 °F 79% 29.98 in 10.0 mi NW 8.1 mph - N/A   Clear
3:20 PM 80.6 °F 86.2 °F 75.2 °F 84% 29.98 in 10.0 mi NNW 15.0 mph - N/A   Clear
3:35 PM 80.6 °F 85.4 °F 73.4 °F 79% 29.98 in 10.0 mi NW 12.7 mph - N/A   Clear
3:55 PM 80.6 °F 85.4 °F 73.4 °F 79% 29.98 in 10.0 mi NNW 11.5 mph - N/A   Clear
4:15 PM 80.6 °F 84.6 °F 71.6 °F 74% 29.98 in 10.0 mi NNW 11.5 mph - N/A   Clear
4:20 PM 80.6 °F 84.6 °F 71.6 °F 74% 29.98 in 10.0 mi NNW 10.4 mph - N/A   Clear
4:35 PM 80.6 °F 83.9 °F 69.8 °F 70% 29.98 in 10.0 mi NNW 12.7 mph - N/A   Clear
4:40 PM 80.6 °F 84.6 °F 71.6 °F 74% 29.98 in 10.0 mi NNW 10.4 mph - N/A   Clear
4:55 PM 80.6 °F 82.3 °F 64.4 °F 58% 29.99 in 10.0 mi North 9.2 mph - N/A   Clear
5:15 PM 80.6 °F 82.3 °F 64.4 °F 58% 29.99 in 10.0 mi NNW 10.4 mph 17.3 mph N/A   Clear
5:20 PM 80.6 °F 82.3 °F 64.4 °F 58% 29.99 in 10.0 mi NNW 9.2 mph - N/A   Clear
5:35 PM 80.6 °F 82.3 °F 64.4 °F 58% 30.00 in 10.0 mi NNW 11.5 mph - N/A   Clear
5:55 PM 78.8 °F - 64.4 °F 61% 30.00 in 10.0 mi North 9.2 mph 17.3 mph N/A   Clear
6:00 PM 78.8 °F - 64.4 °F 61% 30.00 in 10.0 mi NNW 11.5 mph 17.3 mph N/A   Clear
6:15 PM 77.0 °F - 62.6 °F 61% 30.01 in 10.0 mi North 11.5 mph - N/A   Clear
6:20 PM 77.0 °F - 62.6 °F 61% 30.01 in 10.0 mi North 10.4 mph - N/A   Clear
6:35 PM 77.0 °F - 64.4 °F 65% 30.01 in 10.0 mi NNW 8.1 mph - N/A   Clear
6:55 PM 75.2 °F - 64.4 °F 69% 30.01 in 10.0 mi NNW 8.1 mph - N/A   Clear
7:00 PM 75.2 °F - 64.4 °F 69% 30.01 in 10.0 mi NNW 9.2 mph - N/A   Clear
7:15 PM 73.4 °F - 66.2 °F 78% 30.02 in 10.0 mi NNW 8.1 mph - N/A   Clear
7:20 PM 73.4 °F - 66.2 °F 78% 30.02 in 10.0 mi North 9.2 mph - N/A   Clear
7:35 PM 73.4 °F - 64.4 °F 73% 30.02 in 10.0 mi North 9.2 mph - N/A   Clear
7:55 PM 71.6 °F - 62.6 °F 73% 30.03 in 10.0 mi NNW 10.4 mph - N/A   Clear
8:00 PM 71.6 °F - 62.6 °F 73% 30.03 in 10.0 mi North 10.4 mph - N/A   Clear
8:15 PM 68.0 °F - 62.6 °F 83% 30.03 in 10.0 mi North 6.9 mph - N/A   Clear
8:20 PM 68.0 °F - 62.6 °F 83% 30.04 in 10.0 mi North 8.1 mph - N/A   Clear
8:35 PM 66.2 °F - 64.4 °F 94% 30.05 in 10.0 mi North 6.9 mph - N/A   Clear
8:55 PM 66.2 °F - 64.4 °F 94% 30.05 in 10.0 mi North 10.4 mph - N/A   Clear
9:15 PM 66.2 °F - 64.4 °F 94% 30.06 in 10.0 mi NNW 9.2 mph - N/A   Clear
9:20 PM 66.2 °F - 64.4 °F 94% 30.06 in 10.0 mi North 8.1 mph - N/A   Clear
9:35 PM 64.4 °F - 64.4 °F 100% 30.07 in 10.0 mi North 8.1 mph - N/A   Clear
9:55 PM 64.4 °F - 64.4 °F 100% 30.07 in 10.0 mi North 10.4 mph - N/A   Clear
10:15 PM 64.4 °F - 64.4 °F 100% 30.08 in 10.0 mi North 9.2 mph - N/A   Clear
10:20 PM 64.4 °F - 64.4 °F 100% 30.08 in 10.0 mi North 10.4 mph - N/A   Clear
10:35 PM 64.4 °F - 64.4 °F 100% 30.08 in 10.0 mi North 9.2 mph - N/A   Clear
10:40 PM 62.6 °F - 62.6 °F 100% 30.08 in 10.0 mi North 9.2 mph - N/A   Clear
10:55 PM 62.6 °F - 62.6 °F 100% 30.09 in 10.0 mi North 8.1 mph - N/A   Clear
11:15 PM 62.6 °F - 62.6 °F 100% 30.09 in 10.0 mi North 9.2 mph - N/A   Clear
11:20 PM 62.6 °F - 62.6 °F 100% 30.10 in 10.0 mi North 6.9 mph - N/A   Clear
11:35 PM 60.8 °F - 60.8 °F 100% 30.10 in 10.0 mi North 9.2 mph - N/A   Clear
11:40 PM 60.8 °F - 60.8 °F 100% 30.10 in 10.0 mi North 9.2 mph - N/A   Clear
11:55 PM 60.8 °F - 60.8 °F 100% 30.10 in 10.0 mi North 9.2 mph - N/A   Clear